Time;durP1;ratioP1;P1;durP2;ratioP2;P2;SDS_P1;SDS_P2;PMS_P1;PMS_P2;Temp;Humidity;BMP_temperature;BMP_pressure;BME280_temperature;BME280_humidity;BME280_pressure;Samples;Min_cycle;Max_cycle;Signal;HPM_P1;HPM_P2
2023/05/31 00:01:09;;;;;;;6.83;5.20;;;13.50;99.90;;;;;;5031850;28;20232;-54
2023/05/31 00:03:40;;;;;;;6.07;4.57;;;13.40;99.90;;;;;;5032507;28;20247;-53
2023/05/31 00:06:09;;;;;;;8.10;5.23;;;13.40;99.90;;;;;;5044049;28;20626;-54
2023/05/31 00:08:37;;;;;;;7.97;5.53;;;13.40;99.90;;;;;;5052155;28;20227;-55
2023/05/31 00:11:06;;;;;;;9.30;5.23;;;13.30;99.90;;;;;;5052112;28;20227;-54
2023/05/31 00:13:36;;;;;;;10.40;4.97;;;13.30;99.90;;;;;;5051599;28;20256;-54
2023/05/31 00:16:04;;;;;;;8.60;4.87;;;13.30;99.90;;;;;;5035065;28;20228;-55
2023/05/31 00:18:38;;;;;;;5.00;4.50;;;13.30;99.90;;;;;;5055395;28;20700;-55
2023/05/31 00:21:06;;;;;;;9.03;5.80;;;13.30;99.90;;;;;;5051922;28;20254;-54
2023/05/31 00:23:34;;;;;;;8.50;5.73;;;13.20;99.90;;;;;;5052122;28;20218;-54
2023/05/31 00:26:02;;;;;;;6.57;4.90;;;13.20;99.90;;;;;;5052279;28;20218;-53
2023/05/31 00:28:31;;;;;;;6.50;5.33;;;13.20;99.90;;;;;;5052123;28;20235;-53
2023/05/31 00:31:01;;;;;;;6.97;5.47;;;13.10;99.90;;;;;;5033492;28;20596;-55
2023/05/31 00:33:29;;;;;;;7.13;5.30;;;13.10;99.90;;;;;;5037869;28;20216;-54
2023/05/31 00:35:57;;;;;;;8.77;5.47;;;13.20;99.90;;;;;;5045623;28;20301;-54
2023/05/31 00:38:27;;;;;;;8.57;5.23;;;13.20;99.90;;;;;;5051718;28;20341;-54
2023/05/31 00:40:55;;;;;;;7.73;4.97;;;13.10;99.90;;;;;;5050920;28;20641;-54
2023/05/31 00:43:23;;;;;;;9.20;5.83;;;13.10;99.90;;;;;;5052213;28;20582;-53
2023/05/31 00:45:51;;;;;;;11.43;6.17;;;13.10;99.90;;;;;;5035841;28;20319;-55
2023/05/31 00:48:20;;;;;;;8.33;5.90;;;13.10;99.90;;;;;;5033616;28;20620;-54
2023/05/31 00:50:50;;;;;;;7.33;6.00;;;13.10;99.90;;;;;;5052304;28;20226;-54
2023/05/31 00:53:19;;;;;;;5.97;4.20;;;13.20;99.90;;;;;;5050660;28;20254;-54
2023/05/31 00:55:52;;;;;;;7.70;5.17;;;13.30;99.90;;;;;;5051918;28;20238;-54
2023/05/31 00:58:20;;;;;;;9.83;5.07;;;13.50;99.90;;;;;;5051905;28;20251;-54
2023/05/31 01:00:48;;;;;;;7.67;5.23;;;13.30;99.90;;;;;;5038788;28;20591;-54
2023/05/31 01:03:20;;;;;;;11.43;6.47;;;13.20;99.90;;;;;;5030727;28;20230;-52
2023/05/31 01:05:48;;;;;;;10.73;6.20;;;13.20;99.90;;;;;;5039170;28;20238;-54
2023/05/31 01:08:17;;;;;;;11.43;6.53;;;13.30;99.90;;;;;;5050460;28;20587;-55
2023/05/31 01:10:45;;;;;;;11.50;6.80;;;13.30;99.90;;;;;;5051270;28;20259;-55
2023/05/31 01:13:24;;;;;;;16.27;7.20;;;13.40;99.90;;;;;;5055332;28;20225;-53
2023/05/31 01:15:59;;;;;;;21.43;8.57;;;13.30;99.90;;;;;;5042869;28;20227;-53
2023/05/31 01:18:36;;;;;;;17.03;9.77;;;13.30;99.90;;;;;;5050758;28;20815;-54
2023/05/31 01:21:06;;;;;;;15.93;8.13;;;13.30;99.90;;;;;;5047075;28;20242;-54
2023/05/31 01:23:42;;;;;;;26.47;11.00;;;13.40;99.90;;;;;;5053777;28;20263;-53
2023/05/31 01:26:31;;;;;;;18.47;9.20;;;13.30;99.90;;;;;;5034055;28;20236;-53
2023/05/31 01:29:02;;;;;;;24.87;12.27;;;13.10;99.90;;;;;;5053013;28;20227;-52
2023/05/31 01:31:32;;;;;;;24.07;12.60;;;13.10;99.90;;;;;;5038959;28;20236;-54
2023/05/31 01:34:01;;;;;;;25.03;12.27;;;13.10;99.90;;;;;;5035061;28;20277;-54
2023/05/31 01:36:29;;;;;;;29.33;12.87;;;13.20;99.90;;;;;;5044890;28;20774;-55
2023/05/31 01:38:57;;;;;;;24.63;12.00;;;13.10;99.90;;;;;;5053077;28;20595;-53
2023/05/31 01:41:29;;;;;;;24.30;11.80;;;13.20;99.90;;;;;;5034963;28;20703;-55
2023/05/31 01:43:58;;;;;;;22.87;12.40;;;13.20;99.90;;;;;;5034958;28;20745;-54
2023/05/31 01:46:27;;;;;;;25.03;11.50;;;13.10;99.90;;;;;;5044016;28;20223;-54
2023/05/31 01:48:56;;;;;;;20.37;11.57;;;13.10;99.90;;;;;;5057017;28;20266;-54
2023/05/31 01:51:26;;;;;;;19.60;11.50;;;12.60;99.90;;;;;;5054667;28;20247;-54
2023/05/31 01:53:54;;;;;;;11.37;8.37;;;12.20;99.90;;;;;;5054617;28;20270;-54
2023/05/31 01:56:23;;;;;;;11.90;8.20;;;12.20;99.90;;;;;;5053410;28;20641;-55
2023/05/31 01:58:56;;;;;;;10.87;7.73;;;12.40;99.90;;;;;;5053298;28;20238;-54
2023/05/31 02:01:24;;;;;;;9.00;6.50;;;12.50;99.90;;;;;;5049361;28;20308;-53
2023/05/31 02:03:52;;;;;;;10.03;8.20;;;12.80;99.90;;;;;;5054573;28;20242;-55
2023/05/31 02:06:22;;;;;;;9.47;7.43;;;12.50;99.90;;;;;;5045976;28;20269;-53
2023/05/31 02:08:51;;;;;;;8.57;7.13;;;12.20;99.90;;;;;;5053011;28;20227;-52
2023/05/31 02:11:19;;;;;;;8.73;7.10;;;12.00;99.90;;;;;;5043194;28;20239;-54
2023/05/31 02:13:47;;;;;;;8.97;6.87;;;11.70;99.90;;;;;;5034221;28;20699;-53
2023/05/31 02:16:17;;;;;;;6.93;5.77;;;11.50;99.90;;;;;;5039838;28;20234;-53
2023/05/31 02:18:47;;;;;;;6.83;6.13;;;11.50;99.90;;;;;;5037325;28;20239;-52
2023/05/31 02:21:15;;;;;;;7.50;6.70;;;11.50;99.90;;;;;;5052559;28;20243;-52
2023/05/31 02:23:43;;;;;;;6.63;5.87;;;11.40;99.90;;;;;;5051936;28;20567;-53
2023/05/31 02:26:11;;;;;;;7.07;6.17;;;11.30;99.90;;;;;;5054137;28;20340;-52
2023/05/31 02:28:40;;;;;;;5.87;4.97;;;11.20;99.90;;;;;;5053847;28;20302;-53
2023/05/31 02:31:08;;;;;;;6.57;5.63;;;11.20;99.90;;;;;;5050584;28;20338;-54
2023/05/31 02:33:37;;;;;;;6.00;5.27;;;11.20;99.90;;;;;;5050134;28;20226;-54
2023/05/31 02:36:06;;;;;;;5.03;4.53;;;11.20;99.90;;;;;;5045368;28;20239;-52
2023/05/31 02:38:34;;;;;;;4.77;4.27;;;11.20;99.90;;;;;;5053843;28;20685;-51
2023/05/31 02:41:02;;;;;;;4.50;4.10;;;11.20;99.90;;;;;;5052366;28;20230;-54
2023/05/31 02:43:30;;;;;;;4.87;4.37;;;11.20;99.90;;;;;;5052187;28;20230;-53
2023/05/31 02:46:01;;;;;;;4.83;4.30;;;11.30;99.90;;;;;;5051809;28;20591;-53
2023/05/31 02:48:30;;;;;;;4.53;4.13;;;11.40;99.90;;;;;;5034564;28;20227;-53
2023/05/31 02:51:01;;;;;;;4.30;3.90;;;11.40;99.90;;;;;;5052110;28;20568;-53
2023/05/31 02:54:08;;;;;;;4.60;4.20;;;11.40;99.90;;;;;;5040172;28;20235;-54
2023/05/31 02:56:37;;;;;;;4.73;4.03;;;11.30;99.90;;;;;;5052109;28;20226;-54
2023/05/31 02:59:15;;;;;;;4.47;3.63;;;11.40;99.90;;;;;;5052118;28;20225;-53
2023/05/31 03:02:00;;;;;;;3.90;3.47;;;11.20;99.90;;;;;;5047137;28;20618;-54
2023/05/31 03:04:32;;;;;;;4.00;3.67;;;11.00;99.90;;;;;;5037341;28;20732;-54
2023/05/31 03:07:01;;;;;;;4.03;3.63;;;11.10;99.90;;;;;;5045049;28;20273;-54
2023/05/31 03:09:30;;;;;;;4.07;3.60;;;10.80;99.90;;;;;;5051648;28;20234;-54
2023/05/31 03:12:00;;;;;;;4.03;3.63;;;10.70;99.90;;;;;;5051701;28;20226;-52
2023/05/31 03:14:29;;;;;;;4.70;3.73;;;10.70;99.90;;;;;;5051648;28;20226;-54
2023/05/31 03:16:58;;;;;;;3.50;3.20;;;10.60;99.90;;;;;;5048363;28;20236;-53
2023/05/31 03:19:26;;;;;;;3.50;3.20;;;10.50;99.90;;;;;;5041587;28;20223;-52
2023/05/31 03:21:54;;;;;;;3.67;3.37;;;10.50;99.90;;;;;;5049872;28;20250;-54
2023/05/31 03:24:27;;;;;;;3.93;3.63;;;10.60;99.90;;;;;;5046285;28;20259;-53
2023/05/31 03:26:55;;;;;;;4.17;3.77;;;10.50;99.90;;;;;;5051594;28;20229;-53
2023/05/31 03:29:25;;;;;;;4.10;3.70;;;10.60;99.90;;;;;;5051606;28;20260;-52
2023/05/31 03:31:54;;;;;;;4.53;3.67;;;10.70;99.90;;;;;;5047658;28;20225;-50
2023/05/31 03:34:22;;;;;;;4.40;4.00;;;10.80;99.90;;;;;;5032527;28;20227;-51
2023/05/31 03:36:51;;;;;;;5.23;4.50;;;10.90;99.90;;;;;;5051333;28;20232;-53
2023/05/31 03:39:32;;;;;;;5.37;4.50;;;10.80;99.90;;;;;;5051386;28;20720;-52
2023/05/31 03:42:02;;;;;;;4.50;4.10;;;10.50;99.90;;;;;;5051426;28;20228;-52
2023/05/31 03:44:30;;;;;;;4.27;3.87;;;10.40;99.90;;;;;;5048255;28;20222;-53
2023/05/31 03:46:59;;;;;;;4.80;4.40;;;10.30;99.90;;;;;;5049944;28;20229;-52
2023/05/31 03:49:28;;;;;;;4.33;3.93;;;10.30;99.90;;;;;;5047585;28;20279;-51
2023/05/31 03:51:57;;;;;;;4.90;4.10;;;10.20;99.90;;;;;;5051246;28;20233;-54
2023/05/31 03:54:25;;;;;;;5.17;4.60;;;10.40;99.90;;;;;;5051265;28;20229;-52
2023/05/31 03:56:56;;;;;;;5.90;4.80;;;10.50;99.90;;;;;;5051249;28;20268;-53
2023/05/31 03:59:24;;;;;;;4.73;4.30;;;10.70;99.90;;;;;;5051485;28;20240;-53
2023/05/31 04:01:53;;;;;;;4.57;4.17;;;10.80;99.90;;;;;;5046142;28;20226;-52
2023/05/31 04:04:21;;;;;;;5.10;4.60;;;10.80;99.90;;;;;;5032724;28;20321;-54
2023/05/31 04:06:49;;;;;;;4.53;4.10;;;11.00;99.90;;;;;;5052291;28;20226;-52
2023/05/31 04:09:17;;;;;;;5.00;4.60;;;10.90;99.90;;;;;;5052459;28;20215;-54
2023/05/31 04:11:46;;;;;;;4.53;4.13;;;11.00;99.90;;;;;;5051088;28;20233;-55
2023/05/31 04:14:15;;;;;;;4.50;4.10;;;10.70;99.90;;;;;;5052374;28;20587;-54
2023/05/31 04:16:44;;;;;;;4.13;3.73;;;10.50;99.90;;;;;;5045487;28;20583;-54
2023/05/31 04:19:14;;;;;;;4.77;3.97;;;10.60;99.90;;;;;;5039254;28;20278;-54
2023/05/31 04:21:43;;;;;;;4.77;4.33;;;10.80;99.90;;;;;;5052075;28;20788;-53
2023/05/31 04:24:12;;;;;;;4.70;4.30;;;10.80;99.90;;;;;;5050947;28;20280;-53
2023/05/31 04:26:40;;;;;;;4.60;4.20;;;10.90;99.90;;;;;;5052108;28;20225;-51
2023/05/31 04:29:10;;;;;;;6.00;4.83;;;11.10;99.90;;;;;;5051023;28;20237;-53
2023/05/31 04:31:40;;;;;;;5.43;4.63;;;11.40;99.90;;;;;;5048144;28;20226;-52
2023/05/31 04:34:20;;;;;;;5.73;4.50;;;11.50;99.90;;;;;;5032235;28;20226;-53
2023/05/31 04:36:51;;;;;;;4.77;4.17;;;11.40;99.90;;;;;;5052228;28;20662;-54
2023/05/31 04:39:23;;;;;;;4.83;4.33;;;11.40;99.90;;;;;;5034800;28;20254;-52
2023/05/31 04:41:55;;;;;;;6.47;4.70;;;11.30;99.90;;;;;;5030909;28;20690;-54
2023/05/31 04:44:23;;;;;;;5.60;4.90;;;11.40;99.90;;;;;;5030953;28;20228;-52
2023/05/31 04:46:55;;;;;;;5.33;4.77;;;11.60;99.90;;;;;;5034552;28;20323;-53
2023/05/31 04:49:24;;;;;;;5.43;4.57;;;11.70;99.90;;;;;;5048562;28;20339;-54
2023/05/31 04:51:52;;;;;;;4.33;3.93;;;11.70;99.90;;;;;;5054484;28;20241;-54
2023/05/31 04:54:20;;;;;;;4.53;4.13;;;11.80;99.90;;;;;;5054518;28;20238;-53
2023/05/31 04:56:49;;;;;;;4.97;4.37;;;11.90;99.90;;;;;;5054315;28;20241;-54
2023/05/31 04:59:17;;;;;;;4.70;4.20;;;12.30;99.90;;;;;;5054443;28;20281;-54
2023/05/31 05:01:45;;;;;;;6.07;4.77;;;12.50;99.90;;;;;;5053450;28;20239;-54
2023/05/31 05:04:18;;;;;;;6.47;4.80;;;12.80;99.90;;;;;;5039073;28;20235;-54
2023/05/31 05:06:46;;;;;;;5.60;4.57;;;12.80;99.90;;;;;;5056252;28;20234;-54
2023/05/31 05:09:15;;;;;;;5.23;4.67;;;12.80;99.90;;;;;;5053932;28;20276;-52
2023/05/31 05:11:45;;;;;;;5.20;4.70;;;12.80;99.90;;;;;;5050271;28;20614;-54
2023/05/31 05:14:13;;;;;;;4.83;4.43;;;12.90;99.90;;;;;;5053941;28;20705;-51
2023/05/31 05:16:42;;;;;;;5.30;4.77;;;13.00;99.90;;;;;;5051794;28;20235;-54
2023/05/31 05:19:10;;;;;;;6.77;5.50;;;13.00;99.90;;;;;;5050384;28;20230;-54
2023/05/31 05:21:41;;;;;;;5.80;5.20;;;13.10;99.90;;;;;;5046079;28;20247;-53
2023/05/31 05:24:12;;;;;;;7.73;4.93;;;13.40;99.90;;;;;;5048617;28;20219;-54
2023/05/31 05:26:40;;;;;;;7.53;5.30;;;13.90;99.90;;;;;;5053442;28;20231;-52
2023/05/31 05:29:08;;;;;;;7.90;5.70;;;14.20;99.90;;;;;;5053883;28;20223;-53
2023/05/31 05:31:36;;;;;;;6.73;5.43;;;14.40;99.90;;;;;;5053282;28;20241;-54
2023/05/31 05:34:06;;;;;;;6.80;5.23;;;14.60;99.90;;;;;;5052751;28;20233;-52
2023/05/31 05:36:35;;;;;;;7.80;5.83;;;14.60;99.90;;;;;;5049788;28;20220;-53
2023/05/31 05:39:06;;;;;;;7.40;5.90;;;14.80;99.90;;;;;;5053870;28;20234;-52
2023/05/31 05:41:34;;;;;;;9.90;5.43;;;14.90;99.90;;;;;;5037290;28;20289;-52
2023/05/31 05:44:04;;;;;;;7.30;5.30;;;15.10;99.90;;;;;;5034422;28;20290;-51
2023/05/31 05:46:33;;;;;;;7.10;5.53;;;15.20;99.90;;;;;;5034809;28;20234;-49
2023/05/31 05:49:02;;;;;;;6.87;5.70;;;15.60;99.90;;;;;;5041815;28;20223;-49
2023/05/31 05:51:30;;;;;;;6.13;5.53;;;15.70;99.90;;;;;;5039426;28;20238;-52
2023/05/31 05:54:04;;;;;;;6.67;5.00;;;16.00;99.90;;;;;;5034565;28;20228;-51
2023/05/31 05:56:32;;;;;;;8.27;6.37;;;16.00;99.90;;;;;;5035026;28;20227;-52
2023/05/31 05:59:02;;;;;;;7.30;5.30;;;16.10;99.90;;;;;;5031888;28;20220;-52
2023/05/31 06:01:48;;;;;;;8.47;5.37;;;16.20;99.90;;;;;;5033794;28;20707;-49
2023/05/31 06:04:18;;;;;;;10.43;5.57;;;16.50;99.90;;;;;;5052889;28;20255;-53
2023/05/31 06:06:46;;;;;;;7.60;4.97;;;16.80;99.90;;;;;;5033299;28;20691;-50
2023/05/31 06:09:17;;;;;;;6.43;4.80;;;16.80;99.90;;;;;;5031069;28;20239;-51
2023/05/31 06:11:45;;;;;;;6.67;4.50;;;17.00;99.90;;;;;;5032487;28;20317;-50
2023/05/31 06:14:14;;;;;;;6.63;5.30;;;17.40;99.90;;;;;;5032697;28;20242;-52
2023/05/31 06:16:48;;;;;;;6.00;4.70;;;17.40;99.90;;;;;;5034642;28;20226;-52
2023/05/31 06:19:17;;;;;;;6.20;5.13;;;17.50;99.90;;;;;;5032165;28;21421;-54
2023/05/31 06:21:47;;;;;;;6.60;4.67;;;17.70;99.90;;;;;;5033390;28;20813;-50
2023/05/31 06:24:17;;;;;;;11.60;5.27;;;18.10;99.90;;;;;;5033086;28;20233;-53
2023/05/31 06:26:45;;;;;;;6.93;4.77;;;18.40;99.90;;;;;;5032833;28;20228;-53
2023/05/31 06:29:13;;;;;;;6.63;5.10;;;18.70;99.90;;;;;;5031488;28;20233;-53
2023/05/31 06:31:50;;;;;;;6.20;4.43;;;18.90;99.90;;;;;;5033676;28;20240;-51
2023/05/31 06:34:20;;;;;;;7.47;4.73;;;19.00;99.90;;;;;;5034016;28;20235;-52
2023/05/31 06:36:48;;;;;;;5.40;3.97;;;19.10;99.90;;;;;;5035724;28;20236;-50
2023/05/31 06:39:17;;;;;;;5.93;3.60;;;19.20;99.90;;;;;;5032398;28;20315;-52
2023/05/31 06:41:45;;;;;;;6.80;4.33;;;19.70;99.90;;;;;;5034550;28;20257;-50
2023/05/31 06:44:37;;;;;;;5.40;3.60;;;19.90;99.90;;;;;;5010430;28;20242;-51
2023/05/31 06:51:07;;;;;;;5.30;3.90;;;20.40;99.90;;;;;;5035591;28;20293;-53
2023/05/31 06:54:00;;;;;;;6.57;3.47;;;20.50;99.90;;;;;;4996690;28;20235;-53
2023/05/31 06:56:29;;;;;;;7.77;4.43;;;20.80;99.90;;;;;;5034519;28;20326;-54
2023/05/31 06:58:58;;;;;;;5.17;3.50;;;20.90;99.90;;;;;;5048073;28;20783;-53
2023/05/31 07:01:26;;;;;;;5.90;3.43;;;20.90;99.90;;;;;;5037863;28;20250;-53
2023/05/31 07:03:54;;;;;;;7.30;3.97;;;21.00;99.90;;;;;;5037550;28;20239;-53
2023/05/31 07:06:24;;;;;;;6.73;4.37;;;21.20;99.90;;;;;;5031928;28;20653;-48
2023/05/31 07:08:52;;;;;;;6.10;3.70;;;21.10;99.90;;;;;;5035112;28;20285;-53
2023/05/31 07:11:25;;;;;;;5.80;3.60;;;21.00;99.90;;;;;;5035830;28;20235;-54
2023/05/31 07:13:59;;;;;;;4.10;3.20;;;20.80;99.90;;;;;;5035722;28;20751;-52
2023/05/31 07:16:27;;;;;;;5.20;3.20;;;20.80;99.90;;;;;;5036778;28;20325;-50
2023/05/31 07:18:58;;;;;;;5.70;3.17;;;20.90;99.90;;;;;;5034567;28;20253;-51
2023/05/31 07:21:26;;;;;;;4.33;2.80;;;21.00;99.90;;;;;;5049515;28;20379;-53
2023/05/31 07:23:56;;;;;;;5.07;2.87;;;21.10;99.90;;;;;;5035905;28;20621;-53
2023/05/31 07:26:24;;;;;;;7.37;2.73;;;21.30;99.90;;;;;;5036047;28;20319;-52
2023/05/31 07:28:53;;;;;;;10.13;3.20;;;21.60;99.90;;;;;;5033444;28;20695;-53
2023/05/31 07:31:23;;;;;;;5.33;3.00;;;21.60;99.90;;;;;;5035147;28;20286;-52
2023/05/31 07:33:51;;;;;;;6.87;3.50;;;21.90;99.90;;;;;;5034407;28;20242;-52
2023/05/31 07:36:19;;;;;;;6.73;3.50;;;22.10;99.90;;;;;;5037638;28;20247;-52
2023/05/31 07:38:47;;;;;;;6.73;3.53;;;22.40;99.90;;;;;;5032654;28;20697;-52
2023/05/31 07:41:16;;;;;;;6.90;3.17;;;22.40;99.90;;;;;;5036320;28;20241;-52
2023/05/31 07:43:45;;;;;;;6.50;3.57;;;22.50;99.90;;;;;;5034866;28;20223;-53
2023/05/31 07:46:13;;;;;;;7.73;3.33;;;22.90;99.90;;;;;;5035437;28;20224;-52
2023/05/31 07:48:43;;;;;;;6.77;3.10;;;23.20;99.90;;;;;;5042240;28;20281;-53
2023/05/31 07:51:11;;;;;;;6.63;4.00;;;22.80;99.90;;;;;;5044510;28;20809;-52
2023/05/31 07:53:40;;;;;;;6.90;3.20;;;23.00;99.90;;;;;;5041357;28;20224;-51
2023/05/31 07:56:08;;;;;;;7.17;3.60;;;22.90;99.90;;;;;;5044322;28;20231;-52
2023/05/31 07:58:37;;;;;;;7.43;2.80;;;23.30;99.90;;;;;;5032908;28;20234;-50
2023/05/31 08:01:05;;;;;;;8.53;3.63;;;23.50;99.90;;;;;;5035079;28;20640;-53
2023/05/31 08:03:33;;;;;;;8.93;3.70;;;23.40;99.90;;;;;;5036372;28;20231;-52
2023/05/31 08:06:04;;;;;;;6.80;3.40;;;23.80;99.90;;;;;;5035438;28;20710;-53
2023/05/31 08:08:33;;;;;;;7.37;3.40;;;23.50;99.90;;;;;;5032724;28;20279;-50
2023/05/31 08:11:02;;;;;;;5.90;3.40;;;23.60;99.90;;;;;;5033409;28;20218;-52
2023/05/31 08:13:30;;;;;;;6.73;2.87;;;23.60;99.90;;;;;;5039066;28;20220;-51
2023/05/31 08:15:58;;;;;;;8.17;3.17;;;24.00;99.90;;;;;;5046722;28;20235;-54
2023/05/31 08:18:26;;;;;;;7.77;3.17;;;24.30;99.90;;;;;;5041307;28;20307;-53
2023/05/31 08:20:54;;;;;;;7.90;3.60;;;24.40;99.90;;;;;;5045152;28;20311;-52
2023/05/31 08:23:23;;;;;;;6.77;3.17;;;24.40;99.90;;;;;;5047412;28;20228;-52
2023/05/31 08:25:53;;;;;;;5.97;3.00;;;24.30;99.90;;;;;;5048748;28;20223;-53
2023/05/31 08:28:21;;;;;;;6.47;2.80;;;24.70;99.90;;;;;;5046979;28;20231;-51
2023/05/31 08:30:49;;;;;;;4.57;2.40;;;24.90;99.90;;;;;;5048217;28;20322;-49
2023/05/31 08:33:17;;;;;;;7.57;3.23;;;25.00;99.90;;;;;;5048628;28;20271;-54
2023/05/31 08:35:45;;;;;;;5.27;2.77;;;24.90;99.90;;;;;;5049422;28;20255;-49
2023/05/31 08:38:14;;;;;;;6.17;2.90;;;25.10;99.90;;;;;;5049187;28;20224;-52
2023/05/31 08:40:44;;;;;;;5.43;2.53;;;25.40;99.90;;;;;;5049117;28;20310;-52
2023/05/31 08:43:16;;;;;;;5.60;2.97;;;25.40;99.90;;;;;;5048333;28;20229;-52
2023/05/31 08:45:44;;;;;;;6.17;2.50;;;25.70;99.90;;;;;;5049375;28;20228;-53
2023/05/31 08:48:18;;;;;;;4.60;2.33;;;25.80;99.90;;;;;;5047820;28;20235;-52
2023/05/31 08:50:47;;;;;;;6.83;2.60;;;26.20;99.90;;;;;;5049550;28;20230;-52
2023/05/31 08:53:18;;;;;;;5.57;2.13;;;26.10;99.90;;;;;;5048182;28;20275;-52
2023/05/31 08:55:48;;;;;;;5.80;1.90;;;25.80;99.90;;;;;;5049934;28;20230;-51
2023/05/31 08:58:17;;;;;;;6.40;2.40;;;25.80;99.90;;;;;;5047969;28;20275;-53
2023/05/31 09:00:46;;;;;;;2.97;1.73;;;25.90;99.90;;;;;;5044455;28;20332;-52
2023/05/31 09:03:17;;;;;;;3.27;1.83;;;25.90;99.90;;;;;;5038419;28;20231;-53
2023/05/31 09:05:45;;;;;;;4.37;2.20;;;25.90;99.90;;;;;;5037782;28;20236;-52
2023/05/31 09:08:13;;;;;;;2.83;1.97;;;26.20;99.90;;;;;;5036111;28;20239;-52
2023/05/31 09:10:41;;;;;;;4.93;1.90;;;27.10;99.90;;;;;;5038375;28;20235;-51
2023/05/31 09:13:11;;;;;;;5.67;2.13;;;27.60;99.90;;;;;;5038794;28;20235;-52
2023/05/31 09:15:40;;;;;;;3.57;2.10;;;27.50;99.90;;;;;;5047148;28;20231;-54
2023/05/31 09:18:16;;;;;;;3.43;1.90;;;27.40;99.90;;;;;;5046859;28;20231;-52
2023/05/31 09:20:44;;;;;;;5.43;2.30;;;27.70;99.90;;;;;;5040860;28;20226;-50
2023/05/31 09:23:18;;;;;;;4.43;2.10;;;27.50;99.90;;;;;;5038918;28;20313;-53
2023/05/31 09:25:48;;;;;;;4.53;2.20;;;27.60;99.90;;;;;;5037839;28;20780;-55
2023/05/31 09:28:20;;;;;;;3.87;2.00;;;27.60;99.90;;;;;;5034962;28;20223;-50
2023/05/31 09:31:02;;;;;;;4.07;2.10;;;27.80;99.90;;;;;;5041163;28;20249;-53
2023/05/31 09:33:41;;;;;;;4.63;2.30;;;27.70;99.00;;;;;;5047175;28;20230;-52
2023/05/31 09:36:11;;;;;;;5.00;2.20;;;27.60;98.90;;;;;;5047595;28;20229;-53
2023/05/31 09:38:39;;;;;;;4.50;2.20;;;27.00;97.50;;;;;;5045331;28;20219;-54
2023/05/31 09:41:18;;;;;;;4.37;2.40;;;26.90;96.70;;;;;;5045829;28;20228;-54
2023/05/31 09:43:48;;;;;;;5.60;2.60;;;27.20;99.40;;;;;;5046757;28;20266;-54
2023/05/31 09:46:17;;;;;;;4.47;2.60;;;27.20;97.40;;;;;;5047190;28;20293;-53
2023/05/31 09:48:46;;;;;;;4.33;2.00;;;26.80;97.10;;;;;;5045152;28;20231;-54
2023/05/31 09:51:14;;;;;;;4.47;2.30;;;26.80;98.00;;;;;;5047365;28;20231;-53
2023/05/31 09:53:45;;;;;;;3.87;1.90;;;27.10;98.30;;;;;;5046968;28;20239;-53
2023/05/31 09:56:19;;;;;;;3.80;2.00;;;27.40;95.70;;;;;;5045003;28;20229;-54
2023/05/31 09:58:52;;;;;;;3.30;1.70;;;27.70;94.90;;;;;;5042130;28;20254;-52
2023/05/31 10:01:20;;;;;;;4.73;1.97;;;27.70;95.20;;;;;;5036883;28;20239;-52
2023/05/31 10:03:49;;;;;;;5.07;2.70;;;27.50;94.80;;;;;;5036167;28;20306;-53
2023/05/31 10:06:19;;;;;;;4.27;2.33;;;27.70;94.10;;;;;;5034575;28;20241;-52
2023/05/31 10:08:47;;;;;;;6.53;2.83;;;28.00;96.10;;;;;;5034653;28;20743;-52
2023/05/31 10:11:18;;;;;;;4.73;2.67;;;28.40;94.50;;;;;;5038477;28;20591;-53
2023/05/31 10:13:50;;;;;;;4.97;2.50;;;28.20;95.70;;;;;;5038447;28;20314;-51
2023/05/31 10:16:22;;;;;;;5.83;2.63;;;28.10;97.10;;;;;;5037204;28;20592;-52
2023/05/31 10:18:54;;;;;;;4.17;2.30;;;28.10;96.90;;;;;;5035713;28;20231;-52
2023/05/31 10:21:25;;;;;;;5.53;2.63;;;28.30;97.00;;;;;;5037711;28;20797;-52
2023/05/31 10:23:58;;;;;;;6.70;2.20;;;27.90;95.90;;;;;;5037483;28;20314;-52
2023/05/31 10:26:35;;;;;;;7.60;2.80;;;28.30;97.80;;;;;;5038966;28;20569;-54
2023/05/31 10:29:14;;;;;;;6.97;2.83;;;28.10;97.40;;;;;;5032271;28;20595;-50
2023/05/31 10:31:51;;;;;;;4.43;3.00;;;27.90;97.90;;;;;;5036071;28;20353;-54
2023/05/31 10:34:22;;;;;;;3.57;1.93;;;27.80;99.80;;;;;;5043714;28;20245;-52
2023/05/31 10:36:51;;;;;;;4.97;2.30;;;28.30;99.80;;;;;;5042859;28;20232;-53
2023/05/31 10:39:27;;;;;;;5.37;1.97;;;28.70;99.00;;;;;;5035577;28;20705;-52
2023/05/31 10:42:03;;;;;;;5.47;2.00;;;28.50;99.20;;;;;;5036400;28;20287;-53
2023/05/31 10:44:40;;;;;;;5.80;2.33;;;28.50;99.90;;;;;;5037431;28;20655;-53
2023/05/31 10:47:10;;;;;;;5.70;1.90;;;28.40;99.80;;;;;;5034342;28;20398;-52
2023/05/31 10:49:40;;;;;;;5.93;2.00;;;28.20;99.90;;;;;;5037306;28;20221;-53
2023/05/31 10:52:10;;;;;;;7.63;2.20;;;28.10;99.90;;;;;;5036126;28;20227;-54
2023/05/31 10:54:40;;;;;;;4.27;1.93;;;28.40;99.90;;;;;;5037714;28;20238;-50
2023/05/31 10:57:10;;;;;;;6.07;1.90;;;28.60;99.90;;;;;;5037146;28;20305;-52
2023/05/31 10:59:45;;;;;;;6.03;2.30;;;28.70;99.80;;;;;;5032639;28;20236;-51
2023/05/31 11:02:13;;;;;;;4.57;1.80;;;28.20;98.70;;;;;;5033580;28;20248;-54
2023/05/31 11:04:42;;;;;;;4.17;1.50;;;27.70;99.30;;;;;;5037057;28;20641;-54
2023/05/31 11:07:17;;;;;;;6.27;1.70;;;27.70;98.70;;;;;;5035899;28;20626;-53
2023/05/31 11:10:01;;;;;;;5.57;1.90;;;28.20;98.70;;;;;;5034045;28;20230;-54
2023/05/31 11:12:36;;;;;;;5.20;2.20;;;28.60;98.50;;;;;;5033106;28;20252;-52
2023/05/31 11:15:13;;;;;;;4.30;1.77;;;28.60;97.90;;;;;;5037943;28;20341;-52
2023/05/31 11:17:50;;;;;;;6.53;1.90;;;28.10;98.00;;;;;;5035250;28;20224;-53
2023/05/31 11:20:19;;;;;;;4.63;1.70;;;27.90;99.30;;;;;;5034830;28;20268;-50
2023/05/31 11:22:47;;;;;;;3.90;1.70;;;28.40;98.30;;;;;;5034411;28;20334;-51
2023/05/31 11:25:21;;;;;;;4.23;1.57;;;28.20;98.10;;;;;;5034688;28;20227;-52
2023/05/31 11:28:06;;;;;;;3.23;1.30;;;28.10;98.80;;;;;;5032660;28;20231;-54
2023/05/31 11:30:40;;;;;;;3.80;1.57;;;28.10;97.40;;;;;;5035283;28;20243;-55
2023/05/31 11:33:18;;;;;;;2.73;1.23;;;27.30;98.20;;;;;;5035076;28;20557;-52
2023/05/31 11:35:46;;;;;;;4.83;1.50;;;27.90;99.00;;;;;;5037559;28;20336;-51
2023/05/31 11:38:15;;;;;;;3.63;1.40;;;27.30;98.10;;;;;;5036860;28;20770;-52
2023/05/31 11:40:44;;;;;;;2.77;1.43;;;27.30;98.60;;;;;;5034432;28;20325;-53
2023/05/31 11:43:15;;;;;;;2.53;1.30;;;27.50;98.60;;;;;;5034284;28;20236;-53
2023/05/31 11:45:50;;;;;;;3.20;1.30;;;27.40;98.50;;;;;;5035114;28;20712;-52
2023/05/31 11:48:30;;;;;;;2.53;1.10;;;27.00;97.10;;;;;;5033648;28;20588;-52
2023/05/31 11:50:58;;;;;;;3.63;1.50;;;27.20;98.70;;;;;;5036098;28;20223;-53
2023/05/31 11:53:28;;;;;;;3.50;1.20;;;27.40;97.60;;;;;;5034409;28;20321;-52
2023/05/31 11:55:58;;;;;;;5.07;1.83;;;26.70;98.30;;;;;;5034674;28;20244;-52
2023/05/31 11:58:27;;;;;;;4.07;1.60;;;26.40;98.70;;;;;;5032682;28;20314;-53
2023/05/31 12:01:01;;;;;;;3.17;1.30;;;26.00;98.70;;;;;;5036591;28;20239;-50
2023/05/31 12:03:31;;;;;;;3.33;1.40;;;25.80;99.30;;;;;;5036368;28;20215;-51
2023/05/31 12:06:00;;;;;;;2.70;1.20;;;25.60;99.90;;;;;;5037836;28;20644;-52
2023/05/31 12:08:29;;;;;;;3.73;1.50;;;25.40;99.70;;;;;;5036436;28;20743;-51
2023/05/31 12:11:05;;;;;;;3.57;1.30;;;25.40;99.90;;;;;;5033758;28;20226;-53
2023/05/31 12:13:34;;;;;;;3.67;1.07;;;25.20;99.60;;;;;;5035241;28;20315;-52
2023/05/31 12:16:05;;;;;;;3.47;1.10;;;25.10;99.90;;;;;;5034675;28;20226;-54
2023/05/31 12:18:35;;;;;;;4.80;1.37;;;25.20;99.90;;;;;;5032922;28;20230;-52
2023/05/31 12:21:15;;;;;;;2.23;1.10;;;24.90;99.90;;;;;;5036265;28;20782;-52
2023/05/31 12:23:53;;;;;;;2.93;1.23;;;24.80;99.90;;;;;;5034211;28;20249;-53
2023/05/31 12:26:22;;;;;;;3.17;1.27;;;24.80;99.90;;;;;;5035143;28;20235;-53
2023/05/31 12:28:51;;;;;;;4.33;1.10;;;24.60;99.90;;;;;;5032107;28;20249;-53
2023/05/31 12:31:24;;;;;;;1.60;1.17;;;24.70;99.90;;;;;;5034747;28;20242;-50
2023/05/31 12:33:59;;;;;;;3.90;1.30;;;24.60;99.90;;;;;;5035209;28;20292;-54
2023/05/31 12:36:28;;;;;;;2.73;1.40;;;24.50;99.90;;;;;;5034868;28;20226;-53
2023/05/31 12:38:57;;;;;;;4.93;1.30;;;24.40;99.90;;;;;;5034356;28;20706;-53
2023/05/31 12:41:25;;;;;;;3.43;1.20;;;24.20;99.90;;;;;;5033883;28;20710;-52
2023/05/31 12:43:55;;;;;;;4.57;1.40;;;24.20;99.90;;;;;;5033840;28;20225;-53
2023/05/31 12:46:24;;;;;;;4.80;1.40;;;24.20;99.90;;;;;;5034974;28;20225;-52
2023/05/31 12:48:52;;;;;;;3.87;1.50;;;24.30;99.90;;;;;;5032202;28;20256;-53
2023/05/31 12:51:22;;;;;;;3.57;1.40;;;24.10;99.90;;;;;;5035102;28;21053;-52
2023/05/31 12:53:50;;;;;;;3.83;1.30;;;23.70;99.90;;;;;;5037396;28;20248;-51
2023/05/31 12:56:18;;;;;;;2.97;1.40;;;23.40;99.90;;;;;;5037582;28;20721;-52
2023/05/31 12:58:46;;;;;;;3.20;1.67;;;23.50;99.90;;;;;;5033443;28;20225;-50
2023/05/31 13:01:14;;;;;;;2.33;1.30;;;23.50;99.90;;;;;;5033099;28;20243;-52
2023/05/31 13:03:44;;;;;;;3.77;1.50;;;23.50;99.90;;;;;;5032351;28;20225;-52
2023/05/31 13:06:12;;;;;;;2.10;1.10;;;23.70;99.90;;;;;;5030904;28;20222;-53